sensor_id;sensor_type;location;lat;lon;timestamp;P1;durP1;ratioP1;P2;durP2;ratioP2
42866;SDS011;39461;40.948;73.006;2022-10-22T00:02:04;11.55;;;3.03;;
42866;SDS011;39461;40.948;73.006;2022-10-22T00:04:48;8.02;;;2.90;;
42866;SDS011;39461;40.948;73.006;2022-10-22T00:07:22;7.03;;;3.22;;
42866;SDS011;39461;40.948;73.006;2022-10-22T00:09:57;5.05;;;3.00;;
42866;SDS011;39461;40.948;73.006;2022-10-22T00:12:31;5.05;;;2.53;;
42866;SDS011;39461;40.948;73.006;2022-10-22T00:15:00;6.32;;;3.25;;
42866;SDS011;39461;40.948;73.006;2022-10-22T00:17:35;7.50;;;3.67;;
42866;SDS011;39461;40.948;73.006;2022-10-22T00:20:11;9.45;;;3.13;;
42866;SDS011;39461;40.948;73.006;2022-10-22T00:22:45;6.45;;;3.22;;
42866;SDS011;39461;40.948;73.006;2022-10-22T00:25:25;10.75;;;3.50;;
42866;SDS011;39461;40.948;73.006;2022-10-22T00:28:01;7.45;;;3.10;;
42866;SDS011;39461;40.948;73.006;2022-10-22T00:30:35;6.57;;;2.83;;
42866;SDS011;39461;40.948;73.006;2022-10-22T00:33:10;8.50;;;2.97;;
42866;SDS011;39461;40.948;73.006;2022-10-22T00:35:43;7.18;;;2.90;;
42866;SDS011;39461;40.948;73.006;2022-10-22T00:38:22;8.05;;;3.55;;
42866;SDS011;39461;40.948;73.006;2022-10-22T00:40:56;9.77;;;3.67;;
42866;SDS011;39461;40.948;73.006;2022-10-22T00:43:31;8.10;;;4.07;;
42866;SDS011;39461;40.948;73.006;2022-10-22T00:46:06;12.20;;;4.90;;
42866;SDS011;39461;40.948;73.006;2022-10-22T00:48:42;10.45;;;4.70;;
42866;SDS011;39461;40.948;73.006;2022-10-22T00:51:15;11.73;;;5.63;;
42866;SDS011;39461;40.948;73.006;2022-10-22T00:53:55;15.55;;;6.32;;
42866;SDS011;39461;40.948;73.006;2022-10-22T00:56:30;8.93;;;6.07;;
42866;SDS011;39461;40.948;73.006;2022-10-22T00:59:06;14.63;;;5.05;;
42866;SDS011;39461;40.948;73.006;2022-10-22T01:04:39;7.50;;;3.22;;
42866;SDS011;39461;40.948;73.006;2022-10-22T01:07:19;6.82;;;2.97;;
42866;SDS011;39461;40.948;73.006;2022-10-22T01:09:59;12.70;;;4.57;;
42866;SDS011;39461;40.948;73.006;2022-10-22T01:15:27;23.40;;;6.55;;
42866;SDS011;39461;40.948;73.006;2022-10-22T01:29:29;16.00;;;6.38;;
42866;SDS011;39461;40.948;73.006;2022-10-22T01:32:14;17.40;;;6.53;;
42866;SDS011;39461;40.948;73.006;2022-10-22T01:34:54;16.45;;;5.40;;
42866;SDS011;39461;40.948;73.006;2022-10-22T01:37:32;12.13;;;4.57;;
42866;SDS011;39461;40.948;73.006;2022-10-22T01:40:09;11.73;;;4.20;;
42866;SDS011;39461;40.948;73.006;2022-10-22T01:43:01;18.10;;;4.15;;
42866;SDS011;39461;40.948;73.006;2022-10-22T01:45:47;13.50;;;2.97;;
42866;SDS011;39461;40.948;73.006;2022-10-22T01:53:52;5.68;;;3.28;;
42866;SDS011;39461;40.948;73.006;2022-10-22T01:56:38;9.98;;;2.88;;
42866;SDS011;39461;40.948;73.006;2022-10-22T01:59:24;7.50;;;2.55;;
42866;SDS011;39461;40.948;73.006;2022-10-22T02:05:08;5.78;;;2.72;;
42866;SDS011;39461;40.948;73.006;2022-10-22T02:07:48;7.95;;;3.13;;
42866;SDS011;39461;40.948;73.006;2022-10-22T02:10:24;9.63;;;2.78;;
42866;SDS011;39461;40.948;73.006;2022-10-22T02:12:59;14.35;;;3.78;;
42866;SDS011;39461;40.948;73.006;2022-10-22T02:15:31;11.90;;;4.38;;
42866;SDS011;39461;40.948;73.006;2022-10-22T02:18:07;10.65;;;4.40;;
42866;SDS011;39461;40.948;73.006;2022-10-22T02:20:43;16.00;;;6.13;;
42866;SDS011;39461;40.948;73.006;2022-10-22T02:23:16;12.88;;;5.82;;
42866;SDS011;39461;40.948;73.006;2022-10-22T02:25:50;27.30;;;8.25;;
42866;SDS011;39461;40.948;73.006;2022-10-22T02:30:59;12.63;;;5.80;;
42866;SDS011;39461;40.948;73.006;2022-10-22T02:33:37;18.23;;;6.47;;
42866;SDS011;39461;40.948;73.006;2022-10-22T02:36:14;13.38;;;5.93;;
42866;SDS011;39461;40.948;73.006;2022-10-22T02:38:48;12.23;;;5.93;;
42866;SDS011;39461;40.948;73.006;2022-10-22T02:41:23;13.13;;;6.55;;
42866;SDS011;39461;40.948;73.006;2022-10-22T02:43:56;14.77;;;6.68;;
42866;SDS011;39461;40.948;73.006;2022-10-22T02:46:35;18.10;;;6.00;;
42866;SDS011;39461;40.948;73.006;2022-10-22T02:49:09;10.68;;;4.80;;
42866;SDS011;39461;40.948;73.006;2022-10-22T02:51:42;11.02;;;4.72;;
42866;SDS011;39461;40.948;73.006;2022-10-22T02:54:17;12.00;;;4.68;;
42866;SDS011;39461;40.948;73.006;2022-10-22T02:56:53;17.05;;;5.22;;
42866;SDS011;39461;40.948;73.006;2022-10-22T02:59:26;11.18;;;4.65;;
42866;SDS011;39461;40.948;73.006;2022-10-22T03:01:59;14.73;;;5.72;;
42866;SDS011;39461;40.948;73.006;2022-10-22T03:04:33;17.50;;;6.40;;
42866;SDS011;39461;40.948;73.006;2022-10-22T03:07:06;14.32;;;5.35;;
42866;SDS011;39461;40.948;73.006;2022-10-22T03:09:40;12.82;;;5.90;;
42866;SDS011;39461;40.948;73.006;2022-10-22T03:12:13;13.77;;;5.65;;
42866;SDS011;39461;40.948;73.006;2022-10-22T03:14:46;15.60;;;5.05;;
42866;SDS011;39461;40.948;73.006;2022-10-22T03:17:20;11.57;;;5.38;;
42866;SDS011;39461;40.948;73.006;2022-10-22T03:19:53;13.07;;;5.68;;
42866;SDS011;39461;40.948;73.006;2022-10-22T03:22:26;15.27;;;7.57;;
42866;SDS011;39461;40.948;73.006;2022-10-22T03:25:03;17.70;;;7.97;;
42866;SDS011;39461;40.948;73.006;2022-10-22T03:27:39;16.33;;;8.90;;
42866;SDS011;39461;40.948;73.006;2022-10-22T03:30:18;23.65;;;10.30;;
42866;SDS011;39461;40.948;73.006;2022-10-22T03:32:52;21.65;;;9.30;;
42866;SDS011;39461;40.948;73.006;2022-10-22T03:35:25;27.40;;;10.73;;
42866;SDS011;39461;40.948;73.006;2022-10-22T03:37:59;18.98;;;9.23;;
42866;SDS011;39461;40.948;73.006;2022-10-22T03:40:36;21.83;;;8.98;;
42866;SDS011;39461;40.948;73.006;2022-10-22T03:43:12;23.17;;;9.27;;
42866;SDS011;39461;40.948;73.006;2022-10-22T03:45:47;15.05;;;6.00;;
42866;SDS011;39461;40.948;73.006;2022-10-22T03:48:29;16.90;;;4.28;;
42866;SDS011;39461;40.948;73.006;2022-10-22T03:51:04;12.60;;;3.63;;
42866;SDS011;39461;40.948;73.006;2022-10-22T03:53:38;8.85;;;3.10;;
42866;SDS011;39461;40.948;73.006;2022-10-22T03:56:17;12.25;;;3.08;;
42866;SDS011;39461;40.948;73.006;2022-10-22T03:58:55;10.13;;;3.78;;
42866;SDS011;39461;40.948;73.006;2022-10-22T04:01:30;8.73;;;3.00;;
42866;SDS011;39461;40.948;73.006;2022-10-22T04:04:06;14.70;;;3.45;;
42866;SDS011;39461;40.948;73.006;2022-10-22T04:06:40;8.52;;;3.30;;
42866;SDS011;39461;40.948;73.006;2022-10-22T04:09:13;7.32;;;2.92;;
42866;SDS011;39461;40.948;73.006;2022-10-22T04:11:46;9.93;;;3.50;;
42866;SDS011;39461;40.948;73.006;2022-10-22T04:14:19;12.10;;;4.05;;
42866;SDS011;39461;40.948;73.006;2022-10-22T04:16:48;13.70;;;4.05;;
42866;SDS011;39461;40.948;73.006;2022-10-22T04:19:23;19.23;;;4.18;;
42866;SDS011;39461;40.948;73.006;2022-10-22T04:21:59;13.18;;;5.82;;
42866;SDS011;39461;40.948;73.006;2022-10-22T04:24:38;27.20;;;12.80;;
42866;SDS011;39461;40.948;73.006;2022-10-22T04:27:12;24.48;;;14.65;;
42866;SDS011;39461;40.948;73.006;2022-10-22T04:29:48;30.38;;;15.05;;
42866;SDS011;39461;40.948;73.006;2022-10-22T04:32:24;32.92;;;15.13;;
42866;SDS011;39461;40.948;73.006;2022-10-22T04:34:59;26.48;;;13.48;;
42866;SDS011;39461;40.948;73.006;2022-10-22T04:37:34;15.13;;;6.47;;
42866;SDS011;39461;40.948;73.006;2022-10-22T04:43:08;14.40;;;5.70;;
42866;SDS011;39461;40.948;73.006;2022-10-22T04:45:43;15.90;;;5.95;;
42866;SDS011;39461;40.948;73.006;2022-10-22T04:48:19;17.98;;;6.55;;
42866;SDS011;39461;40.948;73.006;2022-10-22T04:50:55;26.83;;;9.48;;
42866;SDS011;39461;40.948;73.006;2022-10-22T04:53:31;13.10;;;4.38;;
42866;SDS011;39461;40.948;73.006;2022-10-22T04:58:44;24.00;;;8.35;;
42866;SDS011;39461;40.948;73.006;2022-10-22T05:01:20;24.67;;;8.68;;
42866;SDS011;39461;40.948;73.006;2022-10-22T05:03:57;26.67;;;7.70;;
42866;SDS011;39461;40.948;73.006;2022-10-22T05:06:33;26.85;;;8.32;;
42866;SDS011;39461;40.948;73.006;2022-10-22T05:09:14;29.63;;;7.95;;
42866;SDS011;39461;40.948;73.006;2022-10-22T05:11:51;28.75;;;7.35;;
42866;SDS011;39461;40.948;73.006;2022-10-22T05:14:27;21.42;;;7.35;;
42866;SDS011;39461;40.948;73.006;2022-10-22T05:17:02;19.40;;;7.57;;
42866;SDS011;39461;40.948;73.006;2022-10-22T05:19:35;20.88;;;6.93;;
42866;SDS011;39461;40.948;73.006;2022-10-22T05:22:09;25.05;;;9.02;;
42866;SDS011;39461;40.948;73.006;2022-10-22T05:24:42;25.10;;;8.23;;
42866;SDS011;39461;40.948;73.006;2022-10-22T05:27:23;26.83;;;9.27;;
42866;SDS011;39461;40.948;73.006;2022-10-22T05:30:00;28.83;;;8.93;;
42866;SDS011;39461;40.948;73.006;2022-10-22T05:32:35;24.13;;;8.50;;
42866;SDS011;39461;40.948;73.006;2022-10-22T05:35:09;22.83;;;9.13;;
42866;SDS011;39461;40.948;73.006;2022-10-22T05:37:42;29.58;;;8.52;;
42866;SDS011;39461;40.948;73.006;2022-10-22T05:40:15;21.90;;;8.35;;
42866;SDS011;39461;40.948;73.006;2022-10-22T05:42:48;23.42;;;8.10;;
42866;SDS011;39461;40.948;73.006;2022-10-22T05:45:24;22.50;;;7.95;;
42866;SDS011;39461;40.948;73.006;2022-10-22T05:47:57;19.77;;;7.25;;
42866;SDS011;39461;40.948;73.006;2022-10-22T05:50:30;27.90;;;8.55;;
42866;SDS011;39461;40.948;73.006;2022-10-22T05:56:06;15.48;;;7.68;;
42866;SDS011;39461;40.948;73.006;2022-10-22T05:58:42;25.20;;;8.85;;
42866;SDS011;39461;40.948;73.006;2022-10-22T06:01:21;24.25;;;9.77;;
42866;SDS011;39461;40.948;73.006;2022-10-22T06:03:56;25.65;;;9.30;;
42866;SDS011;39461;40.948;73.006;2022-10-22T06:06:34;18.42;;;8.98;;
42866;SDS011;39461;40.948;73.006;2022-10-22T06:11:54;32.40;;;11.70;;
42866;SDS011;39461;40.948;73.006;2022-10-22T06:14:28;27.73;;;11.45;;
42866;SDS011;39461;40.948;73.006;2022-10-22T06:17:02;30.27;;;11.63;;
42866;SDS011;39461;40.948;73.006;2022-10-22T06:19:33;23.67;;;11.52;;
42866;SDS011;39461;40.948;73.006;2022-10-22T06:22:09;29.48;;;10.98;;
42866;SDS011;39461;40.948;73.006;2022-10-22T06:24:43;31.88;;;12.00;;
42866;SDS011;39461;40.948;73.006;2022-10-22T06:27:17;30.05;;;11.68;;
42866;SDS011;39461;40.948;73.006;2022-10-22T06:29:46;32.63;;;14.10;;
42866;SDS011;39461;40.948;73.006;2022-10-22T06:32:22;34.20;;;14.40;;
42866;SDS011;39461;40.948;73.006;2022-10-22T06:34:55;37.08;;;15.82;;
42866;SDS011;39461;40.948;73.006;2022-10-22T06:37:28;28.42;;;12.77;;
42866;SDS011;39461;40.948;73.006;2022-10-22T06:40:01;25.10;;;12.80;;
42866;SDS011;39461;40.948;73.006;2022-10-22T06:42:35;45.85;;;25.30;;
42866;SDS011;39461;40.948;73.006;2022-10-22T06:45:04;44.55;;;23.88;;
42866;SDS011;39461;40.948;73.006;2022-10-22T06:47:31;45.72;;;23.63;;
42866;SDS011;39461;40.948;73.006;2022-10-22T06:50:07;50.17;;;24.50;;
42866;SDS011;39461;40.948;73.006;2022-10-22T06:52:42;41.53;;;24.70;;
42866;SDS011;39461;40.948;73.006;2022-10-22T06:55:17;44.80;;;25.15;;
42866;SDS011;39461;40.948;73.006;2022-10-22T06:57:53;40.60;;;23.58;;
42866;SDS011;39461;40.948;73.006;2022-10-22T07:00:24;39.63;;;22.40;;
42866;SDS011;39461;40.948;73.006;2022-10-22T07:02:59;37.85;;;20.75;;
42866;SDS011;39461;40.948;73.006;2022-10-22T07:05:35;36.60;;;22.67;;
42866;SDS011;39461;40.948;73.006;2022-10-22T07:08:04;54.25;;;31.45;;
42866;SDS011;39461;40.948;73.006;2022-10-22T07:10:31;44.60;;;25.73;;
42866;SDS011;39461;40.948;73.006;2022-10-22T07:13:06;38.65;;;23.45;;
42866;SDS011;39461;40.948;73.006;2022-10-22T07:15:40;38.53;;;22.33;;
42866;SDS011;39461;40.948;73.006;2022-10-22T07:18:13;43.75;;;22.45;;
42866;SDS011;39461;40.948;73.006;2022-10-22T07:20:46;35.35;;;20.38;;
42866;SDS011;39461;40.948;73.006;2022-10-22T07:23:20;36.35;;;22.75;;
42866;SDS011;39461;40.948;73.006;2022-10-22T07:25:53;46.70;;;24.00;;
42866;SDS011;39461;40.948;73.006;2022-10-22T07:28:29;41.63;;;23.25;;
42866;SDS011;39461;40.948;73.006;2022-10-22T07:31:05;39.60;;;22.23;;
42866;SDS011;39461;40.948;73.006;2022-10-22T07:33:38;52.80;;;29.35;;
42866;SDS011;39461;40.948;73.006;2022-10-22T07:36:13;44.95;;;26.80;;
42866;SDS011;39461;40.948;73.006;2022-10-22T07:38:54;54.20;;;32.10;;
42866;SDS011;39461;40.948;73.006;2022-10-22T07:41:28;53.78;;;31.55;;
42866;SDS011;39461;40.948;73.006;2022-10-22T07:43:57;46.03;;;28.15;;
42866;SDS011;39461;40.948;73.006;2022-10-22T07:46:32;38.28;;;22.75;;
42866;SDS011;39461;40.948;73.006;2022-10-22T07:49:08;25.63;;;14.93;;
42866;SDS011;39461;40.948;73.006;2022-10-22T07:51:43;32.35;;;17.95;;
42866;SDS011;39461;40.948;73.006;2022-10-22T07:54:18;28.98;;;16.13;;
42866;SDS011;39461;40.948;73.006;2022-10-22T07:59:50;30.90;;;14.18;;
42866;SDS011;39461;40.948;73.006;2022-10-22T08:02:23;28.42;;;14.50;;
42866;SDS011;39461;40.948;73.006;2022-10-22T08:04:57;25.75;;;13.93;;
42866;SDS011;39461;40.948;73.006;2022-10-22T08:07:30;25.45;;;14.15;;
42866;SDS011;39461;40.948;73.006;2022-10-22T08:10:03;25.65;;;12.35;;
42866;SDS011;39461;40.948;73.006;2022-10-22T08:12:39;25.17;;;12.65;;
42866;SDS011;39461;40.948;73.006;2022-10-22T08:15:06;22.15;;;12.75;;
42866;SDS011;39461;40.948;73.006;2022-10-22T08:17:40;21.23;;;12.13;;
42866;SDS011;39461;40.948;73.006;2022-10-22T08:20:16;19.70;;;10.25;;
42866;SDS011;39461;40.948;73.006;2022-10-22T08:22:48;19.23;;;10.85;;
42866;SDS011;39461;40.948;73.006;2022-10-22T08:25:21;20.02;;;10.90;;
42866;SDS011;39461;40.948;73.006;2022-10-22T08:27:48;19.55;;;10.57;;
42866;SDS011;39461;40.948;73.006;2022-10-22T08:30:18;20.10;;;9.38;;
42866;SDS011;39461;40.948;73.006;2022-10-22T08:32:54;22.70;;;10.15;;
42866;SDS011;39461;40.948;73.006;2022-10-22T08:35:29;17.60;;;9.50;;
42866;SDS011;39461;40.948;73.006;2022-10-22T08:38:08;18.35;;;9.77;;
42866;SDS011;39461;40.948;73.006;2022-10-22T08:40:46;20.40;;;9.55;;
42866;SDS011;39461;40.948;73.006;2022-10-22T08:51:17;13.55;;;7.22;;
42866;SDS011;39461;40.948;73.006;2022-10-22T08:56:49;15.93;;;8.77;;
42866;SDS011;39461;40.948;73.006;2022-10-22T08:59:26;16.30;;;7.72;;
42866;SDS011;39461;40.948;73.006;2022-10-22T09:02:02;24.83;;;9.27;;
42866;SDS011;39461;40.948;73.006;2022-10-22T09:07:43;22.13;;;8.70;;
42866;SDS011;39461;40.948;73.006;2022-10-22T09:10:32;14.48;;;8.15;;
42866;SDS011;39461;40.948;73.006;2022-10-22T09:13:11;20.85;;;8.73;;
42866;SDS011;39461;40.948;73.006;2022-10-22T09:15:48;15.18;;;8.02;;
42866;SDS011;39461;40.948;73.006;2022-10-22T09:21:15;25.77;;;9.60;;
42866;SDS011;39461;40.948;73.006;2022-10-22T09:26:38;19.88;;;9.10;;
42866;SDS011;39461;40.948;73.006;2022-10-22T09:29:16;21.65;;;9.82;;
42866;SDS011;39461;40.948;73.006;2022-10-22T09:31:53;18.52;;;9.80;;
42866;SDS011;39461;40.948;73.006;2022-10-22T09:34:31;17.60;;;9.50;;
42866;SDS011;39461;40.948;73.006;2022-10-22T09:37:06;19.30;;;10.20;;
42866;SDS011;39461;40.948;73.006;2022-10-22T09:39:46;16.60;;;9.73;;
42866;SDS011;39461;40.948;73.006;2022-10-22T09:42:23;24.48;;;9.98;;
42866;SDS011;39461;40.948;73.006;2022-10-22T09:44:58;23.80;;;10.63;;
42866;SDS011;39461;40.948;73.006;2022-10-22T09:47:38;25.65;;;10.43;;
42866;SDS011;39461;40.948;73.006;2022-10-22T09:53:26;37.70;;;23.02;;
42866;SDS011;39461;40.948;73.006;2022-10-22T09:56:08;34.33;;;16.13;;
42866;SDS011;39461;40.948;73.006;2022-10-22T09:58:48;20.98;;;11.32;;
42866;SDS011;39461;40.948;73.006;2022-10-22T10:01:28;20.75;;;11.43;;
42866;SDS011;39461;40.948;73.006;2022-10-22T10:04:06;26.15;;;12.63;;
42866;SDS011;39461;40.948;73.006;2022-10-22T10:06:42;25.88;;;11.90;;
42866;SDS011;39461;40.948;73.006;2022-10-22T10:09:20;30.05;;;13.80;;
42866;SDS011;39461;40.948;73.006;2022-10-22T10:12:03;30.63;;;15.70;;
42866;SDS011;39461;40.948;73.006;2022-10-22T10:14:44;26.38;;;14.20;;
42866;SDS011;39461;40.948;73.006;2022-10-22T10:17:28;23.88;;;12.90;;
42866;SDS011;39461;40.948;73.006;2022-10-22T10:22:49;26.98;;;14.23;;
42866;SDS011;39461;40.948;73.006;2022-10-22T10:33:40;27.65;;;16.17;;
42866;SDS011;39461;40.948;73.006;2022-10-22T10:39:03;28.92;;;16.77;;
42866;SDS011;39461;40.948;73.006;2022-10-22T10:44:33;25.02;;;15.70;;
42866;SDS011;39461;40.948;73.006;2022-10-22T10:55:58;27.55;;;15.60;;
42866;SDS011;39461;40.948;73.006;2022-10-22T10:58:42;33.55;;;17.23;;
42866;SDS011;39461;40.948;73.006;2022-10-22T11:04:05;31.38;;;15.32;;
42866;SDS011;39461;40.948;73.006;2022-10-22T11:06:45;29.10;;;14.32;;
42866;SDS011;39461;40.948;73.006;2022-10-22T11:11:59;31.90;;;20.63;;
42866;SDS011;39461;40.948;73.006;2022-10-22T11:14:41;38.22;;;21.23;;
42866;SDS011;39461;40.948;73.006;2022-10-22T11:17:21;51.33;;;27.38;;
42866;SDS011;39461;40.948;73.006;2022-10-22T11:22:54;38.70;;;21.77;;
42866;SDS011;39461;40.948;73.006;2022-10-22T11:25:30;28.35;;;16.85;;
42866;SDS011;39461;40.948;73.006;2022-10-22T11:28:10;26.48;;;13.10;;
42866;SDS011;39461;40.948;73.006;2022-10-22T11:30:44;25.10;;;13.75;;
42866;SDS011;39461;40.948;73.006;2022-10-22T11:33:20;23.80;;;14.00;;
42866;SDS011;39461;40.948;73.006;2022-10-22T11:35:54;31.83;;;15.98;;
42866;SDS011;39461;40.948;73.006;2022-10-22T11:38:29;33.47;;;18.05;;
42866;SDS011;39461;40.948;73.006;2022-10-22T11:41:05;28.95;;;16.63;;
42866;SDS011;39461;40.948;73.006;2022-10-22T11:46:44;63.58;;;36.38;;
42866;SDS011;39461;40.948;73.006;2022-10-22T11:49:27;87.18;;;47.00;;
42866;SDS011;39461;40.948;73.006;2022-10-22T11:52:12;96.65;;;48.08;;
42866;SDS011;39461;40.948;73.006;2022-10-22T11:54:56;90.22;;;45.20;;
42866;SDS011;39461;40.948;73.006;2022-10-22T11:57:28;154.88;;;78.60;;
42866;SDS011;39461;40.948;73.006;2022-10-22T12:00:08;146.48;;;71.53;;
42866;SDS011;39461;40.948;73.006;2022-10-22T12:02:45;111.45;;;56.90;;
42866;SDS011;39461;40.948;73.006;2022-10-22T12:05:18;70.78;;;42.15;;
42866;SDS011;39461;40.948;73.006;2022-10-22T12:08:00;66.47;;;38.03;;
42866;SDS011;39461;40.948;73.006;2022-10-22T12:14:23;67.28;;;37.45;;
42866;SDS011;39461;40.948;73.006;2022-10-22T12:16:21;60.90;;;36.58;;
42866;SDS011;39461;40.948;73.006;2022-10-22T12:19:03;64.75;;;37.63;;
42866;SDS011;39461;40.948;73.006;2022-10-22T12:21:40;64.72;;;37.15;;
42866;SDS011;39461;40.948;73.006;2022-10-22T12:24:19;60.90;;;35.92;;
42866;SDS011;39461;40.948;73.006;2022-10-22T12:26:54;62.17;;;36.38;;
42866;SDS011;39461;40.948;73.006;2022-10-22T12:29:24;63.40;;;37.60;;
42866;SDS011;39461;40.948;73.006;2022-10-22T12:32:01;68.93;;;37.40;;
42866;SDS011;39461;40.948;73.006;2022-10-22T12:34:47;59.17;;;37.40;;
42866;SDS011;39461;40.948;73.006;2022-10-22T12:37:27;74.85;;;43.35;;
42866;SDS011;39461;40.948;73.006;2022-10-22T12:39:55;73.68;;;44.40;;
42866;SDS011;39461;40.948;73.006;2022-10-22T12:42:30;83.95;;;45.35;;
42866;SDS011;39461;40.948;73.006;2022-10-22T12:45:05;69.25;;;40.80;;
42866;SDS011;39461;40.948;73.006;2022-10-22T12:47:32;64.30;;;37.17;;
42866;SDS011;39461;40.948;73.006;2022-10-22T12:50:13;63.50;;;38.67;;
42866;SDS011;39461;40.948;73.006;2022-10-22T12:52:50;68.60;;;40.22;;
42866;SDS011;39461;40.948;73.006;2022-10-22T12:55:22;67.65;;;42.03;;
42866;SDS011;39461;40.948;73.006;2022-10-22T12:58:03;69.28;;;43.17;;
42866;SDS011;39461;40.948;73.006;2022-10-22T13:00:38;68.95;;;47.97;;
42866;SDS011;39461;40.948;73.006;2022-10-22T13:03:23;80.20;;;47.60;;
42866;SDS011;39461;40.948;73.006;2022-10-22T13:05:53;82.80;;;49.22;;
42866;SDS011;39461;40.948;73.006;2022-10-22T13:08:28;84.03;;;51.53;;
42866;SDS011;39461;40.948;73.006;2022-10-22T13:11:08;86.07;;;54.55;;
42866;SDS011;39461;40.948;73.006;2022-10-22T13:13:44;85.43;;;54.63;;
42866;SDS011;39461;40.948;73.006;2022-10-22T13:16:21;85.78;;;54.78;;
42866;SDS011;39461;40.948;73.006;2022-10-22T13:18:54;84.80;;;55.00;;
42866;SDS011;39461;40.948;73.006;2022-10-22T13:21:34;83.38;;;55.15;;
42866;SDS011;39461;40.948;73.006;2022-10-22T13:24:19;112.05;;;61.97;;
42866;SDS011;39461;40.948;73.006;2022-10-22T13:26:54;120.40;;;64.90;;
42866;SDS011;39461;40.948;73.006;2022-10-22T13:32:30;99.72;;;64.65;;
42866;SDS011;39461;40.948;73.006;2022-10-22T13:38:00;90.80;;;55.40;;
42866;SDS011;39461;40.948;73.006;2022-10-22T13:40:32;91.05;;;51.83;;
42866;SDS011;39461;40.948;73.006;2022-10-22T13:43:08;73.00;;;45.85;;
42866;SDS011;39461;40.948;73.006;2022-10-22T13:45:43;74.32;;;48.42;;
42866;SDS011;39461;40.948;73.006;2022-10-22T13:48:19;72.97;;;47.60;;
42866;SDS011;39461;40.948;73.006;2022-10-22T13:50:55;69.80;;;47.25;;
42866;SDS011;39461;40.948;73.006;2022-10-22T13:53:34;76.53;;;47.28;;
42866;SDS011;39461;40.948;73.006;2022-10-22T13:56:12;70.97;;;47.22;;
42866;SDS011;39461;40.948;73.006;2022-10-22T13:58:50;76.25;;;49.75;;
42866;SDS011;39461;40.948;73.006;2022-10-22T14:01:29;84.20;;;52.25;;
42866;SDS011;39461;40.948;73.006;2022-10-22T14:03:57;90.38;;;54.83;;
42866;SDS011;39461;40.948;73.006;2022-10-22T14:06:33;96.57;;;59.25;;
42866;SDS011;39461;40.948;73.006;2022-10-22T14:09:10;116.45;;;68.55;;
42866;SDS011;39461;40.948;73.006;2022-10-22T14:11:47;116.63;;;70.80;;
42866;SDS011;39461;40.948;73.006;2022-10-22T14:14:16;111.70;;;65.40;;
42866;SDS011;39461;40.948;73.006;2022-10-22T14:16:49;112.53;;;70.10;;
42866;SDS011;39461;40.948;73.006;2022-10-22T14:19:21;108.03;;;71.68;;
42866;SDS011;39461;40.948;73.006;2022-10-22T14:21:58;105.22;;;68.90;;
42866;SDS011;39461;40.948;73.006;2022-10-22T14:24:34;109.72;;;66.18;;
42866;SDS011;39461;40.948;73.006;2022-10-22T14:27:12;105.80;;;66.38;;
42866;SDS011;39461;40.948;73.006;2022-10-22T14:29:44;108.35;;;67.55;;
42866;SDS011;39461;40.948;73.006;2022-10-22T14:32:18;103.35;;;63.10;;
42866;SDS011;39461;40.948;73.006;2022-10-22T14:34:55;105.60;;;63.10;;
42866;SDS011;39461;40.948;73.006;2022-10-22T14:37:30;94.05;;;59.72;;
42866;SDS011;39461;40.948;73.006;2022-10-22T14:40:04;91.03;;;59.25;;
42866;SDS011;39461;40.948;73.006;2022-10-22T14:42:40;92.80;;;56.55;;
42866;SDS011;39461;40.948;73.006;2022-10-22T14:45:22;82.28;;;54.08;;
42866;SDS011;39461;40.948;73.006;2022-10-22T14:54:02;83.82;;;52.50;;
42866;SDS011;39461;40.948;73.006;2022-10-22T14:56:37;81.28;;;53.58;;
42866;SDS011;39461;40.948;73.006;2022-10-22T14:59:07;77.15;;;51.30;;
42866;SDS011;39461;40.948;73.006;2022-10-22T15:01:35;86.15;;;53.80;;
42866;SDS011;39461;40.948;73.006;2022-10-22T15:07:13;88.20;;;56.70;;
42866;SDS011;39461;40.948;73.006;2022-10-22T15:09:49;105.47;;;63.22;;
42866;SDS011;39461;40.948;73.006;2022-10-22T15:12:26;105.15;;;66.38;;
42866;SDS011;39461;40.948;73.006;2022-10-22T15:15:01;118.18;;;71.63;;
42866;SDS011;39461;40.948;73.006;2022-10-22T15:20:42;107.13;;;65.28;;
42866;SDS011;39461;40.948;73.006;2022-10-22T15:23:17;100.00;;;62.25;;
42866;SDS011;39461;40.948;73.006;2022-10-22T15:25:51;92.97;;;59.72;;
42866;SDS011;39461;40.948;73.006;2022-10-22T15:28:20;91.35;;;57.58;;
42866;SDS011;39461;40.948;73.006;2022-10-22T15:33:55;84.38;;;52.55;;
42866;SDS011;39461;40.948;73.006;2022-10-22T15:36:30;82.90;;;50.85;;
42866;SDS011;39461;40.948;73.006;2022-10-22T15:39:06;78.00;;;50.55;;
42866;SDS011;39461;40.948;73.006;2022-10-22T15:41:36;86.60;;;48.20;;
42866;SDS011;39461;40.948;73.006;2022-10-22T15:44:04;78.68;;;48.75;;
42866;SDS011;39461;40.948;73.006;2022-10-22T15:46:43;76.82;;;45.60;;
42866;SDS011;39461;40.948;73.006;2022-10-22T15:49:18;70.20;;;44.72;;
42866;SDS011;39461;40.948;73.006;2022-10-22T15:51:56;66.55;;;41.38;;
42866;SDS011;39461;40.948;73.006;2022-10-22T15:54:31;70.45;;;43.42;;
42866;SDS011;39461;40.948;73.006;2022-10-22T15:57:07;68.70;;;41.45;;
42866;SDS011;39461;40.948;73.006;2022-10-22T15:59:43;70.70;;;43.97;;
42866;SDS011;39461;40.948;73.006;2022-10-22T16:02:18;81.80;;;47.10;;
42866;SDS011;39461;40.948;73.006;2022-10-22T16:04:58;85.35;;;49.38;;
42866;SDS011;39461;40.948;73.006;2022-10-22T16:07:34;85.00;;;50.60;;
42866;SDS011;39461;40.948;73.006;2022-10-22T16:10:01;89.72;;;52.22;;
42866;SDS011;39461;40.948;73.006;2022-10-22T16:12:36;82.55;;;52.97;;
42866;SDS011;39461;40.948;73.006;2022-10-22T16:15:05;92.53;;;53.92;;
42866;SDS011;39461;40.948;73.006;2022-10-22T16:17:33;86.78;;;49.83;;
42866;SDS011;39461;40.948;73.006;2022-10-22T16:20:11;88.75;;;50.33;;
42866;SDS011;39461;40.948;73.006;2022-10-22T16:22:48;79.97;;;46.45;;
42866;SDS011;39461;40.948;73.006;2022-10-22T16:25:29;76.10;;;46.75;;
42866;SDS011;39461;40.948;73.006;2022-10-22T16:27:56;82.18;;;44.50;;
42866;SDS011;39461;40.948;73.006;2022-10-22T16:30:28;69.00;;;43.50;;
42866;SDS011;39461;40.948;73.006;2022-10-22T16:33:05;76.13;;;40.10;;
42866;SDS011;39461;40.948;73.006;2022-10-22T16:35:41;69.07;;;41.10;;
42866;SDS011;39461;40.948;73.006;2022-10-22T16:38:14;63.90;;;39.17;;
42866;SDS011;39461;40.948;73.006;2022-10-22T16:40:45;54.08;;;34.45;;
42866;SDS011;39461;40.948;73.006;2022-10-22T16:43:20;56.33;;;33.80;;
42866;SDS011;39461;40.948;73.006;2022-10-22T16:45:56;57.78;;;33.85;;
42866;SDS011;39461;40.948;73.006;2022-10-22T16:48:31;54.95;;;33.38;;
42866;SDS011;39461;40.948;73.006;2022-10-22T16:51:07;58.50;;;30.75;;
42866;SDS011;39461;40.948;73.006;2022-10-22T16:53:40;54.70;;;32.38;;
42866;SDS011;39461;40.948;73.006;2022-10-22T16:56:16;59.28;;;34.05;;
42866;SDS011;39461;40.948;73.006;2022-10-22T16:58:54;62.33;;;32.90;;
42866;SDS011;39461;40.948;73.006;2022-10-22T17:01:30;48.95;;;29.98;;
42866;SDS011;39461;40.948;73.006;2022-10-22T17:06:58;39.65;;;22.45;;
42866;SDS011;39461;40.948;73.006;2022-10-22T17:09:34;29.42;;;18.80;;
42866;SDS011;39461;40.948;73.006;2022-10-22T17:12:09;33.17;;;18.92;;